Time;durP1;ratioP1;P1;durP2;ratioP2;P2;SDS_P1;SDS_P2;PMS_P1;PMS_P2;Temp;Humidity;BMP_temperature;BMP_pressure;BME280_temperature;BME280_humidity;BME280_pressure;Samples;Min_cycle;Max_cycle;Signal;HPM_P1;HPM_P2
2020/12/10 00:01:35;;;;;;;28.73;9.35;;;3.90;99.90;;;;;;5030209;28;20083;-62
2020/12/10 00:04:01;;;;;;;20.23;8.35;;;3.90;99.90;;;;;;5029338;28;20041;-62
2020/12/10 00:06:27;;;;;;;18.48;8.13;;;3.90;99.90;;;;;;5030340;28;20107;-61
2020/12/10 00:08:52;;;;;;;17.63;8.15;;;3.90;99.90;;;;;;5028982;28;20029;-62
2020/12/10 00:11:18;;;;;;;26.65;9.07;;;3.90;99.90;;;;;;5030017;28;20037;-64
2020/12/10 00:13:44;;;;;;;19.27;8.73;;;3.90;99.90;;;;;;5030372;28;20383;-64
2020/12/10 00:16:11;;;;;;;17.48;8.27;;;4.00;99.90;;;;;;5030717;28;20037;-62
2020/12/10 00:18:37;;;;;;;19.15;9.07;;;3.90;99.90;;;;;;5030092;28;20030;-62
2020/12/10 00:21:03;;;;;;;21.98;8.32;;;3.90;99.90;;;;;;5030628;28;20038;-61
2020/12/10 00:23:28;;;;;;;25.60;9.88;;;3.90;99.90;;;;;;5028558;28;20041;-64
2020/12/10 00:25:54;;;;;;;23.08;9.35;;;3.90;99.90;;;;;;5030569;28;20033;-61
2020/12/10 00:28:19;;;;;;;23.88;8.40;;;3.90;99.90;;;;;;5030315;28;20029;-64
2020/12/10 00:30:45;;;;;;;19.45;8.38;;;3.80;99.90;;;;;;5029805;28;20068;-62
2020/12/10 00:33:11;;;;;;;19.52;7.75;;;3.80;99.90;;;;;;5030221;28;20036;-64
2020/12/10 00:35:36;;;;;;;16.98;8.23;;;3.80;99.90;;;;;;5029864;28;20034;-63
2020/12/10 00:38:02;;;;;;;16.67;7.43;;;3.90;99.90;;;;;;5030410;28;20108;-61
2020/12/10 00:40:28;;;;;;;20.52;8.25;;;3.90;99.90;;;;;;5029611;28;20025;-62
2020/12/10 00:42:53;;;;;;;19.08;8.35;;;3.90;99.90;;;;;;5029738;28;20132;-63
2020/12/10 00:45:19;;;;;;;18.45;8.57;;;3.90;99.90;;;;;;5029106;28;20485;-63
2020/12/10 00:47:44;;;;;;;18.90;7.45;;;3.80;99.90;;;;;;5030419;28;20032;-61
2020/12/10 00:50:10;;;;;;;17.05;8.18;;;3.90;99.90;;;;;;5030244;28;20508;-64
2020/12/10 00:52:35;;;;;;;20.63;8.35;;;3.90;99.90;;;;;;5029737;28;20086;-62
2020/12/10 00:55:01;;;;;;;16.17;7.18;;;3.80;99.90;;;;;;5030581;28;20037;-62
2020/12/10 00:57:27;;;;;;;22.90;8.43;;;3.90;99.90;;;;;;5029736;28;20029;-62
2020/12/10 00:59:52;;;;;;;21.02;8.02;;;3.80;99.90;;;;;;5030217;28;20057;-63
2020/12/10 01:02:18;;;;;;;16.67;7.10;;;3.90;99.90;;;;;;5030221;28;20076;-62
2020/12/10 01:04:43;;;;;;;16.70;7.40;;;3.90;99.90;;;;;;5030186;28;20057;-62
2020/12/10 01:07:09;;;;;;;16.77;7.55;;;3.90;99.90;;;;;;5053716;28;20029;-64
2020/12/10 01:09:35;;;;;;;19.08;6.65;;;3.90;99.90;;;;;;5029158;28;20041;-61
2020/12/10 01:12:04;;;;;;;17.70;7.68;;;3.80;99.90;;;;;;5027701;28;20398;-62
2020/12/10 01:14:31;;;;;;;20.08;7.85;;;3.80;99.90;;;;;;5052401;28;20045;-63
2020/12/10 01:16:57;;;;;;;18.33;7.40;;;3.80;99.90;;;;;;5028903;28;20486;-62
2020/12/10 01:19:22;;;;;;;19.90;7.18;;;3.80;99.90;;;;;;5029161;28;20039;-64
2020/12/10 01:21:48;;;;;;;19.35;7.25;;;3.80;99.90;;;;;;5028433;28;20033;-62
2020/12/10 01:24:13;;;;;;;16.17;7.38;;;3.80;99.90;;;;;;5029287;28;20199;-63
2020/12/10 01:26:39;;;;;;;14.88;7.30;;;3.80;99.90;;;;;;5029014;28;20398;-65
2020/12/10 01:29:05;;;;;;;17.65;7.07;;;3.80;99.90;;;;;;5029421;28;20089;-63
2020/12/10 01:31:31;;;;;;;13.95;6.38;;;3.80;99.90;;;;;;5028541;28;20049;-62
2020/12/10 01:33:57;;;;;;;12.43;6.22;;;3.80;99.90;;;;;;5028976;28;20049;-62
2020/12/10 01:36:26;;;;;;;16.35;7.10;;;3.80;99.90;;;;;;5028381;28;20065;-62
2020/12/10 01:38:52;;;;;;;15.80;6.50;;;3.70;99.90;;;;;;5029089;28;20029;-63
2020/12/10 01:41:19;;;;;;;14.43;6.65;;;3.70;99.90;;;;;;5027816;28;20038;-62
2020/12/10 01:43:44;;;;;;;23.45;7.10;;;3.70;99.90;;;;;;5028482;28;20095;-65
2020/12/10 01:46:10;;;;;;;14.82;6.80;;;3.60;99.90;;;;;;5025012;28;20037;-61
2020/12/10 01:48:36;;;;;;;16.60;6.65;;;3.60;99.90;;;;;;5028744;28;20437;-61
2020/12/10 01:51:03;;;;;;;14.90;6.72;;;3.70;99.90;;;;;;5028252;28;20083;-61
2020/12/10 01:53:29;;;;;;;14.68;6.53;;;3.60;99.90;;;;;;5028655;28;20033;-64
2020/12/10 01:55:55;;;;;;;12.73;5.90;;;3.60;99.90;;;;;;5027737;28;20040;-64
2020/12/10 01:58:21;;;;;;;14.25;6.20;;;3.60;99.90;;;;;;5028848;28;20034;-62
2020/12/10 02:00:47;;;;;;;12.90;5.80;;;3.60;99.90;;;;;;5028165;28;20075;-61
2020/12/10 02:03:13;;;;;;;15.88;6.60;;;3.60;99.90;;;;;;5027055;28;20033;-62
2020/12/10 02:05:43;;;;;;;12.88;5.97;;;3.60;99.90;;;;;;5024648;28;20521;-63
2020/12/10 02:08:09;;;;;;;17.08;6.68;;;3.60;99.90;;;;;;5024936;28;20033;-63
2020/12/10 02:10:35;;;;;;;15.48;6.60;;;3.50;99.90;;;;;;5029058;28;20030;-63
2020/12/10 02:13:00;;;;;;;18.58;6.75;;;3.60;99.90;;;;;;5028377;28;20033;-63
2020/12/10 02:15:26;;;;;;;11.43;6.03;;;3.60;99.90;;;;;;5029133;28;20497;-63
2020/12/10 02:17:54;;;;;;;16.25;6.30;;;3.60;99.90;;;;;;5028581;28;20087;-62
2020/12/10 02:20:21;;;;;;;12.35;5.13;;;3.60;99.90;;;;;;5028741;28;20668;-62
2020/12/10 02:22:59;;;;;;;17.25;6.18;;;3.60;99.90;;;;;;5028685;28;20037;-62
2020/12/10 02:25:25;;;;;;;15.30;6.10;;;3.60;99.90;;;;;;5028894;28;20048;-62
2020/12/10 02:27:51;;;;;;;12.13;6.50;;;3.60;99.90;;;;;;5029336;28;20033;-61
2020/12/10 02:30:16;;;;;;;10.65;4.93;;;3.60;99.90;;;;;;5028856;28;20040;-63
2020/12/10 02:32:42;;;;;;;16.08;6.72;;;3.60;99.90;;;;;;5029425;28;20034;-62
2020/12/10 02:35:07;;;;;;;17.92;6.70;;;3.60;99.90;;;;;;5029130;28;20029;-61
2020/12/10 02:37:33;;;;;;;12.02;5.25;;;3.60;99.90;;;;;;5027867;28;20505;-62
2020/12/10 02:39:58;;;;;;;14.73;5.65;;;3.60;99.90;;;;;;5029285;28;20042;-62
2020/12/10 02:42:24;;;;;;;13.20;5.82;;;3.60;99.90;;;;;;5028962;28;20045;-63
2020/12/10 02:44:50;;;;;;;15.13;6.18;;;3.50;99.90;;;;;;5029338;28;20037;-62
2020/12/10 02:47:16;;;;;;;13.57;6.93;;;3.50;99.90;;;;;;5028910;28;20128;-62
2020/12/10 02:49:42;;;;;;;21.25;6.72;;;3.50;99.90;;;;;;5028895;28;20437;-62
2020/12/10 02:52:07;;;;;;;17.77;6.65;;;3.50;99.90;;;;;;5028307;28;20033;-62
2020/12/10 02:54:33;;;;;;;16.13;5.95;;;3.40;99.90;;;;;;5031691;28;20398;-63
2020/12/10 02:57:01;;;;;;;16.30;6.70;;;3.30;99.90;;;;;;5032772;28;20482;-61
2020/12/10 02:59:26;;;;;;;17.42;6.93;;;3.30;99.90;;;;;;5030244;28;20029;-61
2020/12/10 03:01:53;;;;;;;17.38;7.47;;;3.20;99.90;;;;;;5055669;28;20375;-62
2020/12/10 03:04:18;;;;;;;16.13;7.18;;;3.20;99.90;;;;;;5031377;28;20047;-63
2020/12/10 03:06:44;;;;;;;17.67;7.00;;;3.10;99.90;;;;;;5031563;28;20029;-62
2020/12/10 03:09:09;;;;;;;14.18;6.30;;;3.10;99.90;;;;;;5031333;28;20112;-61
2020/12/10 03:11:35;;;;;;;13.93;6.35;;;3.00;99.90;;;;;;5031608;28;20044;-61
2020/12/10 03:14:00;;;;;;;12.73;6.00;;;3.00;99.90;;;;;;5030744;28;20048;-65
2020/12/10 03:16:26;;;;;;;15.35;5.60;;;2.90;99.90;;;;;;5031769;28;20036;-61
2020/12/10 03:18:51;;;;;;;14.98;6.80;;;2.90;99.90;;;;;;5030987;28;20033;-61
2020/12/10 03:21:17;;;;;;;19.25;7.65;;;2.90;99.90;;;;;;5031297;28;20129;-63
2020/12/10 03:23:42;;;;;;;19.13;7.55;;;2.80;99.90;;;;;;5031721;28;20041;-62
2020/12/10 03:26:08;;;;;;;17.95;7.05;;;2.70;99.90;;;;;;5030955;28;20088;-62
2020/12/10 03:28:33;;;;;;;16.45;7.15;;;2.70;99.90;;;;;;5027480;28;20026;-63
2020/12/10 03:30:59;;;;;;;14.38;6.70;;;2.70;99.90;;;;;;5031911;28;20088;-61
2020/12/10 03:33:25;;;;;;;15.50;7.35;;;2.70;99.90;;;;;;5031386;28;20120;-61
2020/12/10 03:35:50;;;;;;;15.80;6.90;;;2.60;99.90;;;;;;5032084;28;20057;-62
2020/12/10 03:38:16;;;;;;;16.15;6.50;;;2.60;99.90;;;;;;5031323;28;20124;-64
2020/12/10 03:40:41;;;;;;;22.33;8.25;;;2.50;99.90;;;;;;5030377;28;20022;-61
2020/12/10 03:43:07;;;;;;;20.45;7.47;;;2.40;99.90;;;;;;5031932;28;20041;-61
2020/12/10 03:45:33;;;;;;;22.23;7.40;;;2.40;99.90;;;;;;5054597;28;20108;-62
2020/12/10 03:47:58;;;;;;;16.30;7.15;;;2.40;99.90;;;;;;5031785;28;20145;-62
2020/12/10 03:50:24;;;;;;;20.48;7.95;;;2.30;99.90;;;;;;5030569;28;20490;-62
2020/12/10 03:52:50;;;;;;;20.00;8.80;;;2.30;99.90;;;;;;5030535;28;20037;-61
2020/12/10 03:55:15;;;;;;;16.60;7.25;;;2.30;99.90;;;;;;5029812;28;20041;-62
2020/12/10 03:57:41;;;;;;;23.92;8.55;;;2.20;99.90;;;;;;5029080;28;20044;-62
2020/12/10 04:00:06;;;;;;;17.65;7.75;;;2.10;99.90;;;;;;5031743;28;20064;-63
2020/12/10 04:02:32;;;;;;;25.90;8.63;;;2.00;99.90;;;;;;5026198;28;20629;-61
2020/12/10 04:04:57;;;;;;;19.40;7.38;;;2.10;99.90;;;;;;5029768;28;20045;-62
2020/12/10 04:07:23;;;;;;;17.83;7.40;;;2.00;99.90;;;;;;5029798;28;20045;-63
2020/12/10 04:09:48;;;;;;;16.98;7.40;;;2.10;99.90;;;;;;5030615;28;20041;-62
2020/12/10 04:12:14;;;;;;;17.83;7.45;;;2.10;99.90;;;;;;5030413;28;20063;-62
2020/12/10 04:14:39;;;;;;;23.83;7.50;;;2.00;99.90;;;;;;5029964;28;20034;-63
2020/12/10 04:17:05;;;;;;;15.45;6.90;;;2.00;99.90;;;;;;5030306;28;20628;-61
2020/12/10 04:19:30;;;;;;;14.02;6.45;;;2.00;99.90;;;;;;5025404;28;20033;-62
2020/12/10 04:21:56;;;;;;;18.67;7.25;;;2.00;99.90;;;;;;5029753;28;20037;-62
2020/12/10 04:24:21;;;;;;;20.60;7.53;;;1.90;99.90;;;;;;5029979;28;20398;-62
2020/12/10 04:26:47;;;;;;;17.50;6.75;;;1.90;99.90;;;;;;5029334;28;20362;-62
2020/12/10 04:29:13;;;;;;;16.38;7.13;;;1.80;99.90;;;;;;5029623;28;20398;-61
2020/12/10 04:31:40;;;;;;;14.27;6.72;;;1.80;99.90;;;;;;5028921;28;20033;-63
2020/12/10 04:34:06;;;;;;;16.70;7.18;;;1.70;99.90;;;;;;5029615;28;20597;-61
2020/12/10 04:36:31;;;;;;;16.45;7.70;;;1.70;99.90;;;;;;5027477;28;20083;-63
2020/12/10 04:38:57;;;;;;;17.17;6.93;;;1.70;99.90;;;;;;5029642;28;20100;-61
2020/12/10 04:41:24;;;;;;;16.80;6.85;;;1.70;99.90;;;;;;5041608;23;20080;-67
2020/12/10 04:43:52;;;;;;;18.60;7.80;;;1.60;99.90;;;;;;5016344;28;20092;-67
2020/12/10 04:46:19;;;;;;;21.38;8.20;;;1.60;99.90;;;;;;5018131;28;20034;-66
2020/12/10 04:48:45;;;;;;;14.95;7.50;;;1.50;99.90;;;;;;5018826;28;20022;-67
2020/12/10 04:51:11;;;;;;;15.70;6.47;;;1.50;99.90;;;;;;5018245;28;20024;-67
2020/12/10 04:53:36;;;;;;;16.95;7.07;;;1.40;99.90;;;;;;5018612;28;20037;-67
2020/12/10 04:56:07;;;;;;;18.75;7.28;;;1.40;99.90;;;;;;5019450;28;20367;-67
2020/12/10 04:58:33;;;;;;;26.52;8.27;;;1.40;99.90;;;;;;5016625;28;20088;-67
2020/12/10 05:00:59;;;;;;;16.95;7.40;;;1.30;99.90;;;;;;5016332;28;20057;-67
2020/12/10 05:03:25;;;;;;;17.52;7.30;;;1.30;99.90;;;;;;5020105;28;20037;-67
2020/12/10 05:05:51;;;;;;;16.05;7.00;;;1.30;99.90;;;;;;5019252;28;20041;-67
2020/12/10 05:08:31;;;;;;;20.77;7.82;;;1.40;99.90;;;;;;5021560;28;20034;-67
2020/12/10 05:10:57;;;;;;;18.08;7.30;;;1.40;99.90;;;;;;5018772;28;20034;-66
2020/12/10 05:13:23;;;;;;;16.67;7.43;;;1.30;99.90;;;;;;5018962;28;20029;-67
2020/12/10 05:15:49;;;;;;;20.35;7.90;;;1.30;99.90;;;;;;5016024;28;20029;-67
2020/12/10 05:18:16;;;;;;;20.92;6.32;;;1.30;99.90;;;;;;5018695;28;20365;-67
2020/12/10 05:20:45;;;;;;;18.20;6.72;;;1.30;99.90;;;;;;5018345;28;20048;-67
2020/12/10 05:23:12;;;;;;;18.10;7.78;;;1.20;99.90;;;;;;5020292;28;20517;-67
2020/12/10 05:25:53;;;;;;;17.35;6.78;;;1.30;99.90;;;;;;5017550;28;20056;-66
2020/12/10 05:28:20;;;;;;;21.38;7.82;;;1.20;99.90;;;;;;5017690;28;20057;-67
2020/12/10 05:31:16;;;;;;;18.15;7.28;;;1.20;99.90;;;;;;5017181;28;20049;-67
2020/12/10 05:33:52;;;;;;;20.27;7.90;;;1.30;99.90;;;;;;5015703;28;20029;-67
2020/12/10 05:36:17;;;;;;;16.90;7.30;;;1.30;99.90;;;;;;5019067;28;20494;-66
2020/12/10 05:39:07;;;;;;;18.67;7.10;;;1.20;99.90;;;;;;5020128;28;20026;-67
2020/12/10 05:41:35;;;;;;;17.98;6.95;;;1.20;99.90;;;;;;5017146;28;20049;-66
2020/12/10 05:44:12;;;;;;;17.80;7.60;;;1.20;99.90;;;;;;5016695;28;20033;-67
2020/12/10 05:46:38;;;;;;;16.38;7.05;;;1.30;99.90;;;;;;5017317;28;20483;-67
2020/12/10 05:49:04;;;;;;;18.23;7.57;;;1.30;99.90;;;;;;5018912;28;20033;-67
2020/12/10 05:51:46;;;;;;;20.30;8.18;;;1.30;99.90;;;;;;5014851;28;20037;-67
2020/12/10 05:54:13;;;;;;;14.88;7.10;;;1.20;99.90;;;;;;5020262;28;20112;-67
2020/12/10 05:57:05;;;;;;;15.40;6.93;;;1.20;99.90;;;;;;5026181;28;20026;-67
2020/12/10 05:59:33;;;;;;;17.50;6.68;;;1.20;99.90;;;;;;5023963;28;20026;-67
2020/12/10 06:02:05;;;;;;;15.15;7.20;;;1.20;99.90;;;;;;5021876;28;20537;-67
2020/12/10 06:04:30;;;;;;;16.67;7.20;;;1.30;99.90;;;;;;5017171;28;20018;-67
2020/12/10 06:06:58;;;;;;;17.50;6.63;;;1.30;99.90;;;;;;5018078;28;20034;-67
2020/12/10 06:09:24;;;;;;;19.38;6.40;;;1.20;99.90;;;;;;5017610;28;20029;-67
2020/12/10 06:11:59;;;;;;;14.15;6.22;;;1.30;99.90;;;;;;5019244;28;20485;-67
2020/12/10 06:14:24;;;;;;;16.83;7.07;;;1.30;99.90;;;;;;5019844;28;20030;-67
2020/12/10 06:17:07;;;;;;;15.88;6.32;;;1.30;99.90;;;;;;5020927;28;20552;-67
2020/12/10 06:19:34;;;;;;;20.20;6.97;;;1.30;99.90;;;;;;5020391;28;20040;-67
2020/12/10 06:22:22;;;;;;;14.52;6.78;;;1.30;99.90;;;;;;5023351;28;20038;-67
2020/12/10 06:24:48;;;;;;;15.85;7.50;;;1.30;99.90;;;;;;5018526;28;20038;-67
2020/12/10 06:27:34;;;;;;;15.48;6.63;;;1.30;99.90;;;;;;5020675;28;20410;-67
2020/12/10 06:30:17;;;;;;;17.80;6.55;;;1.30;99.90;;;;;;5019516;28;20124;-67
2020/12/10 06:32:52;;;;;;;14.07;6.88;;;1.40;99.90;;;;;;5022515;28;20107;-66
2020/12/10 06:35:30;;;;;;;22.52;7.10;;;1.30;99.90;;;;;;5022173;28;20395;-67
2020/12/10 06:37:56;;;;;;;14.02;6.57;;;1.30;99.90;;;;;;5022638;28;20030;-67
2020/12/10 06:40:59;;;;;;;17.15;6.13;;;1.30;99.90;;;;;;5022217;28;20038;-67
2020/12/10 06:43:36;;;;;;;14.80;6.78;;;1.30;99.90;;;;;;5021957;28;20514;-67
2020/12/10 06:46:01;;;;;;;13.40;6.57;;;1.30;99.90;;;;;;5025037;28;20504;-68
2020/12/10 06:48:44;;;;;;;14.88;6.13;;;1.30;99.90;;;;;;5019876;28;20037;-67
2020/12/10 06:51:15;;;;;;;12.18;5.68;;;1.30;99.90;;;;;;5020075;28;20105;-67
2020/12/10 06:54:01;;;;;;;14.48;6.25;;;1.30;99.90;;;;;;5022228;28;20033;-67
2020/12/10 06:56:50;;;;;;;16.08;6.20;;;1.30;99.90;;;;;;5019490;28;20030;-67
2020/12/10 06:59:16;;;;;;;14.98;6.28;;;1.30;99.90;;;;;;5020037;28;20061;-67
2020/12/10 07:01:41;;;;;;;18.63;6.28;;;1.30;99.90;;;;;;5020970;28;20197;-67
2020/12/10 07:04:30;;;;;;;15.43;6.45;;;1.30;99.90;;;;;;5020991;28;20029;-67
2020/12/10 07:07:18;;;;;;;13.95;5.25;;;1.30;99.90;;;;;;5022871;28;20029;-67
2020/12/10 07:09:57;;;;;;;16.10;6.90;;;1.30;99.90;;;;;;5021284;28;20035;-67
2020/12/10 07:12:27;;;;;;;12.32;5.53;;;1.30;99.90;;;;;;5018592;28;20355;-67
2020/12/10 07:15:24;;;;;;;14.68;6.93;;;1.30;99.90;;;;;;5021183;28;20099;-67
2020/12/10 07:17:50;;;;;;;12.75;5.93;;;1.20;99.90;;;;;;5022490;28;20036;-67
2020/12/10 07:20:17;;;;;;;16.50;6.00;;;1.20;99.90;;;;;;5020655;28;20038;-67
2020/12/10 07:22:42;;;;;;;11.95;6.28;;;1.20;99.90;;;;;;5021034;28;20038;-67
2020/12/10 07:25:08;;;;;;;16.48;6.68;;;1.20;99.90;;;;;;5019878;28;20413;-67
2020/12/10 07:27:33;;;;;;;14.35;6.43;;;1.30;99.90;;;;;;5020852;28;20056;-66
2020/12/10 07:29:59;;;;;;;21.45;6.75;;;1.20;99.90;;;;;;5020718;28;20127;-66
2020/12/10 07:32:24;;;;;;;15.02;6.25;;;1.20;99.90;;;;;;5023813;28;20038;-67
2020/12/10 07:34:50;;;;;;;18.08;6.18;;;1.20;99.90;;;;;;5022863;28;20113;-66
2020/12/10 07:37:17;;;;;;;14.70;6.60;;;1.20;99.90;;;;;;5019714;28;20041;-67
2020/12/10 07:39:43;;;;;;;16.95;6.45;;;1.20;99.90;;;;;;5019489;28;20087;-67
2020/12/10 07:42:09;;;;;;;19.65;7.03;;;1.20;99.90;;;;;;5027481;28;20049;-68
2020/12/10 07:44:35;;;;;;;18.30;7.13;;;1.10;99.90;;;;;;5022717;28;20038;-67
2020/12/10 07:47:11;;;;;;;14.07;6.47;;;1.10;99.90;;;;;;5021050;28;20044;-67
2020/12/10 07:49:37;;;;;;;14.43;6.28;;;1.10;99.90;;;;;;5019574;28;20062;-67
2020/12/10 07:52:12;;;;;;;18.67;7.63;;;1.10;99.90;;;;;;5017863;28;20061;-67
2020/12/10 07:54:52;;;;;;;13.77;6.22;;;1.10;99.90;;;;;;5023630;28;20545;-67
2020/12/10 07:57:31;;;;;;;13.18;6.20;;;1.10;99.90;;;;;;5025152;28;20079;-67
2020/12/10 08:00:05;;;;;;;13.52;5.65;;;1.20;99.90;;;;;;5019589;28;20303;-66
2020/12/10 08:02:49;;;;;;;15.73;6.18;;;1.20;99.90;;;;;;5022145;28;20044;-67
2020/12/10 08:05:19;;;;;;;14.55;5.30;;;1.20;99.90;;;;;;5028285;28;20041;-67
2020/12/10 08:07:47;;;;;;;16.20;5.70;;;1.20;99.90;;;;;;5022010;28;20103;-67
2020/12/10 08:10:20;;;;;;;17.38;6.95;;;1.20;99.90;;;;;;5018317;28;20048;-67
2020/12/10 08:13:06;;;;;;;12.75;6.22;;;1.10;99.90;;;;;;5020996;28;20052;-67
2020/12/10 08:15:32;;;;;;;17.25;5.93;;;1.20;99.90;;;;;;5022896;28;20494;-67
2020/12/10 08:18:09;;;;;;;15.60;6.55;;;1.20;99.90;;;;;;5024678;28;20067;-67
2020/12/10 08:20:46;;;;;;;13.98;5.57;;;1.20;99.90;;;;;;5019514;28;20042;-67
2020/12/10 08:23:13;;;;;;;14.73;5.85;;;1.20;99.90;;;;;;5017503;28;20046;-67
2020/12/10 08:25:40;;;;;;;15.68;5.95;;;1.20;99.90;;;;;;5020473;28;20060;-67
2020/12/10 08:28:10;;;;;;;14.95;5.90;;;1.20;99.90;;;;;;5017683;28;20053;-67
2020/12/10 08:30:36;;;;;;;10.67;4.83;;;1.20;99.90;;;;;;5019287;28;20033;-67
2020/12/10 08:33:03;;;;;;;17.20;5.60;;;1.20;99.90;;;;;;5023453;28;20034;-68
2020/12/10 08:35:42;;;;;;;17.65;6.13;;;1.20;99.90;;;;;;5025291;28;20043;-67
2020/12/10 08:38:09;;;;;;;14.20;5.68;;;1.20;99.90;;;;;;5027748;28;20033;-67
2020/12/10 08:40:35;;;;;;;12.88;5.45;;;1.20;99.90;;;;;;5026479;28;20034;-67
2020/12/10 08:43:17;;;;;;;13.85;5.75;;;1.20;99.90;;;;;;5021986;28;20516;-67
2020/12/10 08:45:44;;;;;;;14.77;6.15;;;1.20;99.90;;;;;;5022669;28;20072;-67
2020/12/10 08:48:14;;;;;;;13.00;5.35;;;1.30;99.90;;;;;;5020539;28;20052;-67
2020/12/10 08:51:12;;;;;;;;;;;1.30;99.90;;;;;;5020865;28;20112;-66
2020/12/10 08:53:52;;;;;;;10.80;5.03;;;1.30;99.90;;;;;;5025435;28;19975;-67
2020/12/10 08:56:32;;;;;;;11.63;4.35;;;1.30;99.90;;;;;;5017834;28;20046;-67
2020/12/10 08:58:58;;;;;;;13.73;5.97;;;1.30;99.90;;;;;;5021152;28;20481;-66
2020/12/10 09:01:23;;;;;;;14.70;6.05;;;1.30;99.90;;;;;;5024135;28;20140;-66
2020/12/10 09:03:49;;;;;;;16.70;5.50;;;1.40;99.90;;;;;;5025868;28;20040;-66
2020/12/10 09:06:14;;;;;;;12.30;6.35;;;1.50;99.90;;;;;;5023826;28;20036;-67
2020/12/10 09:08:40;;;;;;;14.18;6.25;;;1.50;99.90;;;;;;5023942;28;20040;-67
2020/12/10 09:11:07;;;;;;;13.52;5.80;;;1.50;99.90;;;;;;5023671;28;20372;-67
2020/12/10 09:13:33;;;;;;;13.07;5.70;;;1.50;99.90;;;;;;5023597;28;20033;-67
2020/12/10 09:15:58;;;;;;;14.98;6.18;;;1.60;99.90;;;;;;5022764;28;20036;-67
2020/12/10 09:18:24;;;;;;;18.33;6.68;;;1.60;99.90;;;;;;5026108;28;20034;-67
2020/12/10 09:20:49;;;;;;;15.43;6.50;;;1.60;99.90;;;;;;5022648;28;20036;-67
2020/12/10 09:23:15;;;;;;;12.90;6.63;;;1.70;99.90;;;;;;5026302;28;20037;-67
2020/12/10 09:25:40;;;;;;;20.48;6.13;;;1.70;99.90;;;;;;5026193;28;20498;-67
2020/12/10 09:28:09;;;;;;;13.63;6.28;;;1.80;99.90;;;;;;5030151;28;20034;-67
2020/12/10 09:30:35;;;;;;;14.88;6.38;;;1.80;99.90;;;;;;5023917;28;20448;-67
2020/12/10 09:33:02;;;;;;;13.80;5.88;;;1.80;99.90;;;;;;5023294;28;20083;-67
2020/12/10 09:35:28;;;;;;;14.07;6.53;;;1.90;99.90;;;;;;5024323;28;20048;-67
2020/12/10 09:37:56;;;;;;;17.10;6.53;;;1.90;99.90;;;;;;5020110;28;20033;-67
2020/12/10 09:40:22;;;;;;;14.13;5.80;;;2.00;99.90;;;;;;5024163;28;20041;-67
2020/12/10 09:42:49;;;;;;;13.20;6.28;;;1.90;99.90;;;;;;5019942;28;20038;-70
2020/12/10 09:45:16;;;;;;;13.73;6.55;;;1.90;99.90;;;;;;5020582;28;20030;-67
2020/12/10 09:47:45;;;;;;;18.40;6.38;;;1.90;99.90;;;;;;5022603;28;20034;-67
2020/12/10 09:50:45;;;;;;;17.48;6.55;;;1.90;99.90;;;;;;5021480;28;20502;-67
2020/12/10 09:58:03;;;;;;;16.05;6.93;;;1.90;99.90;;;;;;5024754;28;20033;-67
2020/12/10 10:00:28;;;;;;;13.80;6.15;;;2.00;99.90;;;;;;5025773;28;20045;-67
2020/12/10 10:02:54;;;;;;;13.70;6.18;;;1.90;99.90;;;;;;5025688;28;20034;-68
2020/12/10 10:05:20;;;;;;;19.15;6.95;;;2.00;99.90;;;;;;5026207;28;20160;-67
2020/12/10 10:07:46;;;;;;;17.70;6.65;;;1.90;99.90;;;;;;5024655;28;20440;-67
2020/12/10 10:10:11;;;;;;;17.20;7.00;;;2.10;99.90;;;;;;5025804;28;20041;-67
2020/12/10 10:12:37;;;;;;;16.90;7.00;;;2.00;99.90;;;;;;5027669;28;20060;-67
2020/12/10 10:15:03;;;;;;;19.58;7.75;;;2.10;99.90;;;;;;5026504;28;20040;-67
2020/12/10 10:17:29;;;;;;;16.73;6.75;;;2.10;99.90;;;;;;5025997;28;20037;-67
2020/12/10 10:19:54;;;;;;;17.83;6.75;;;2.10;99.90;;;;;;5024357;28;20367;-67
2020/12/10 10:22:20;;;;;;;16.40;6.80;;;2.20;99.90;;;;;;5024996;28;20041;-67
2020/12/10 10:24:45;;;;;;;18.27;7.65;;;2.20;99.90;;;;;;5030081;28;20030;-67
2020/12/10 10:27:11;;;;;;;15.95;6.82;;;2.20;99.90;;;;;;5029114;28;20034;-68
2020/12/10 10:29:37;;;;;;;18.17;7.68;;;2.20;99.90;;;;;;5028353;28;20502;-67
2020/12/10 10:32:05;;;;;;;14.48;6.20;;;2.20;99.90;;;;;;5027929;28;20091;-68
2020/12/10 10:34:31;;;;;;;17.50;6.53;;;2.30;99.90;;;;;;5025776;28;20032;-67
2020/12/10 10:36:56;;;;;;;20.10;8.57;;;2.20;99.90;;;;;;5025107;28;20033;-67
2020/12/10 10:39:22;;;;;;;18.30;8.63;;;2.20;99.90;;;;;;5025962;28;20393;-67
2020/12/10 10:41:49;;;;;;;17.60;8.15;;;2.30;99.90;;;;;;5024926;28;20125;-67
2020/12/10 10:44:15;;;;;;;18.88;8.20;;;2.30;99.90;;;;;;5026291;28;20029;-68
2020/12/10 10:46:41;;;;;;;17.63;7.50;;;2.40;99.90;;;;;;5026266;28;20026;-67
2020/12/10 10:49:08;;;;;;;20.55;8.25;;;2.40;99.90;;;;;;5024089;28;20022;-66
2020/12/10 10:51:34;;;;;;;17.85;8.27;;;2.40;99.90;;;;;;5026873;28;20084;-67
2020/12/10 10:53:59;;;;;;;15.27;6.75;;;2.40;99.90;;;;;;5027878;28;20026;-67
2020/12/10 10:56:25;;;;;;;19.88;7.38;;;2.50;99.90;;;;;;5028487;28;20557;-67
2020/12/10 10:58:51;;;;;;;20.02;8.88;;;2.60;99.90;;;;;;5029172;28;20405;-67
2020/12/10 11:01:30;;;;;;;18.05;7.65;;;2.60;99.90;;;;;;5028803;28;20194;-67
2020/12/10 11:03:56;;;;;;;18.13;8.25;;;2.60;99.90;;;;;;5028806;28;20038;-67
2020/12/10 11:06:22;;;;;;;19.63;8.38;;;2.60;99.90;;;;;;5028871;28;20041;-67
2020/12/10 11:08:47;;;;;;;15.60;7.15;;;2.60;99.90;;;;;;5029030;28;20018;-67
2020/12/10 11:11:18;;;;;;;18.88;8.00;;;2.60;99.90;;;;;;5023569;28;20031;-67
2020/12/10 11:13:43;;;;;;;15.07;7.28;;;2.70;99.90;;;;;;5024237;28;20026;-67
2020/12/10 11:16:09;;;;;;;15.60;6.68;;;2.70;99.90;;;;;;5028123;28;20037;-67
2020/12/10 11:18:34;;;;;;;15.02;6.85;;;2.80;99.90;;;;;;5025361;28;20034;-67
2020/12/10 11:21:00;;;;;;;18.15;7.70;;;2.80;99.90;;;;;;5028781;28;20033;-67
2020/12/10 11:23:25;;;;;;;16.70;7.53;;;2.90;99.90;;;;;;5025140;28;20055;-67
2020/12/10 11:25:51;;;;;;;19.58;7.80;;;2.90;99.90;;;;;;5028547;28;20038;-67
2020/12/10 11:28:16;;;;;;;17.85;6.88;;;2.90;99.90;;;;;;5025416;28;20043;-67
2020/12/10 11:30:42;;;;;;;17.17;8.38;;;2.90;99.90;;;;;;5027430;28;20044;-67
2020/12/10 11:33:08;;;;;;;16.88;7.25;;;3.00;99.90;;;;;;5025204;28;20040;-67
2020/12/10 11:35:33;;;;;;;23.40;7.72;;;3.00;99.90;;;;;;5026289;28;20061;-67
2020/12/10 11:37:59;;;;;;;16.30;7.72;;;3.10;99.90;;;;;;5028062;28;20048;-67
2020/12/10 11:40:25;;;;;;;22.63;7.43;;;3.00;99.90;;;;;;5027512;28;20478;-67
2020/12/10 11:42:51;;;;;;;22.35;8.63;;;3.00;99.90;;;;;;5027538;28;20468;-67
2020/12/10 11:45:18;;;;;;;17.90;8.00;;;3.00;99.90;;;;;;5027816;28;20535;-67
2020/12/10 11:47:46;;;;;;;16.63;7.43;;;3.10;99.90;;;;;;5025745;28;20037;-67
2020/12/10 11:50:18;;;;;;;20.80;8.05;;;3.10;99.90;;;;;;5024156;28;20429;-72
2020/12/10 11:52:46;;;;;;;15.32;7.05;;;3.10;99.90;;;;;;5024612;28;20037;-67
2020/12/10 11:55:11;;;;;;;16.95;6.80;;;3.10;99.90;;;;;;5028882;28;20087;-67
2020/12/10 11:57:37;;;;;;;16.80;7.07;;;3.10;99.90;;;;;;5028767;28;20034;-67
2020/12/10 12:00:06;;;;;;;16.88;7.32;;;3.10;99.90;;;;;;5028673;28;20195;-67
2020/12/10 12:02:31;;;;;;;18.65;7.80;;;3.00;99.90;;;;;;5026333;28;20398;-67
2020/12/10 12:04:57;;;;;;;16.63;7.60;;;3.00;99.90;;;;;;5026056;28;20053;-67
2020/12/10 12:07:22;;;;;;;18.13;7.50;;;2.90;99.90;;;;;;5029411;28;20030;-67
2020/12/10 12:09:48;;;;;;;17.63;7.22;;;2.90;99.90;;;;;;5028596;28;20723;-67
2020/12/10 12:12:13;;;;;;;17.60;7.65;;;2.80;99.90;;;;;;5027136;28;20140;-67
2020/12/10 12:14:39;;;;;;;15.90;7.53;;;2.80;99.90;;;;;;5025344;28;20033;-67
2020/12/10 12:17:04;;;;;;;17.35;7.88;;;2.80;99.90;;;;;;5023725;28;20124;-67
2020/12/10 12:19:30;;;;;;;19.13;7.82;;;2.80;99.90;;;;;;5021201;28;20049;-67
2020/12/10 12:22:02;;;;;;;19.33;7.80;;;2.80;99.90;;;;;;5026814;28;20409;-67
2020/12/10 12:24:28;;;;;;;23.35;8.05;;;2.80;99.90;;;;;;5022951;28;20037;-67
2020/12/10 12:26:54;;;;;;;19.17;8.63;;;2.90;99.90;;;;;;5022315;28;20405;-67
2020/12/10 12:29:20;;;;;;;19.98;7.97;;;2.90;99.90;;;;;;5027026;28;20049;-67
2020/12/10 12:31:45;;;;;;;22.23;7.75;;;2.90;99.90;;;;;;5026708;28;20712;-67
2020/12/10 12:34:11;;;;;;;18.10;7.20;;;3.00;99.90;;;;;;5026352;28;20056;-67
2020/12/10 12:36:36;;;;;;;20.33;8.13;;;3.00;99.90;;;;;;5024876;28;20387;-67
2020/12/10 12:39:04;;;;;;;19.08;7.30;;;3.00;99.90;;;;;;5023234;28;20030;-67
2020/12/10 12:41:31;;;;;;;18.15;7.35;;;2.90;99.90;;;;;;5022647;28;20030;-66
2020/12/10 12:43:57;;;;;;;16.90;7.32;;;2.90;99.90;;;;;;5025561;28;20026;-67
2020/12/10 12:46:23;;;;;;;16.20;7.57;;;3.00;99.90;;;;;;5025864;28;20116;-68
2020/12/10 12:48:50;;;;;;;18.35;7.45;;;2.90;99.90;;;;;;5029080;28;20459;-67
2020/12/10 12:51:17;;;;;;;20.88;7.78;;;2.90;99.90;;;;;;5027469;28;20540;-67
2020/12/10 12:53:43;;;;;;;20.13;7.35;;;2.90;99.90;;;;;;5022684;28;20374;-67
2020/12/10 12:56:08;;;;;;;20.13;7.90;;;2.80;99.90;;;;;;5022218;28;20451;-67
2020/12/10 12:58:34;;;;;;;18.40;8.20;;;2.80;99.90;;;;;;5025627;28;20037;-67